Terminal Aerodrome Forecast
Issued by NWS Milwaukee/Sullivan, WI

Home | Current Version | Previous Version | Text Only | Print | Product List | Glossary On
Versions: 1 2 3 4 5 6 7 8 9 10 11 12 13 14 15 16 17 18 19 20 21 22 23 24 25 26 27 28 29 30
000
FTUS43 KMKX 261722
TAFMSN
TAF
KMSN 261722Z 2618/2718 19007KT P6SM VCTS SCT035 BKN140CB
      TEMPO 2618/2619 5SM -TSRA OVC035CB
     FM262000 23007KT P6SM VCTS SCT025CB BKN080
     FM262100 23007KT P6SM -SHRA VCTS SCT030CB OVC090
     FM262300 27004KT P6SM VCTS SCT035CB OVC090
     FM270000 VRB03KT P6SM SHRA VCTS SCT035CB OVC090
     FM270400 00000KT P6SM VCTS SCT035CB OVC080
     FM271000 01004KT 1 1/2SM BR VCTS BKN035CB
     FM271200 02005KT 2SM BR BKN015
     FM271400 04007KT P6SM BKN015
     FM271600 04007KT P6SM BKN040
     FM271700 04008KT P6SM SCT060=

USA.gov is the U.S. government's official web portal to all federal, state and local government web resources and services.